Time;durP1;ratioP1;P1;durP2;ratioP2;P2;SDS_P1;SDS_P2;PMS_P1;PMS_P2;Temp;Humidity;BMP_temperature;BMP_pressure;BME280_temperature;BME280_humidity;BME280_pressure;Samples;Min_cycle;Max_cycle;Signal;HPM_P1;HPM_P2
2022/12/24 00:01:50;;;;;;;;;;;;;;;5.12;100.00;99628.50;4937398;29;20288;-83
2022/12/24 00:04:15;;;;;;;;;;;;;;;5.15;100.00;99633.50;4915849;28;20393;-83
2022/12/24 00:06:40;;;;;;;;;;;;;;;5.16;100.00;99628.19;4914823;28;19927;-84
2022/12/24 00:09:05;;;;;;;;;;;;;;;5.17;100.00;99629.88;4916787;29;20267;-83
2022/12/24 00:11:31;;;;;;;;;;;;;;;5.18;100.00;99634.16;4915145;28;19951;-83
2022/12/24 00:13:56;;;;;;;;;;;;;;;5.22;100.00;99621.69;4918388;29;19966;-83
2022/12/24 00:16:21;;;;;;;;;;;;;;;5.25;100.00;99616.22;4916239;29;19919;-83
2022/12/24 00:18:47;;;;;;;;;;;;;;;5.28;100.00;99611.63;4910540;29;19919;-83
2022/12/24 00:21:13;;;;;;;;;;;;;;;5.26;100.00;99618.75;4908302;28;19919;-83
2022/12/24 00:23:38;;;;;;;;;;;;;;;5.29;100.00;99622.94;4911108;29;20375;-82
2022/12/24 00:26:04;;;;;;;;;;;;;;;5.32;100.00;99617.47;4907687;29;20057;-83
2022/12/24 00:28:29;;;;;;;;;;;;;;;5.36;100.00;99604.06;4910134;29;20006;-82
2022/12/24 00:30:54;;;;;;;;;;;;;;;5.40;100.00;99609.94;4910741;29;19926;-83
2022/12/24 00:33:21;;;;;;;;;;;;;;;5.42;100.00;99604.59;4909235;29;19966;-82
2022/12/24 00:35:49;;;;;;;;;;;;;;;5.45;100.00;99593.88;4911493;28;19978;-83
2022/12/24 00:38:14;;;;;;;;;;;;;;;5.48;100.00;99580.59;4910730;29;19965;-83
2022/12/24 00:40:39;;;;;;;;;;;;;;;5.51;100.00;99575.97;4907052;29;19919;-84
2022/12/24 00:43:05;;;;;;;;;;;;;;;5.54;100.00;99588.81;4910497;29;19981;-83
2022/12/24 00:45:30;;;;;;;;;;;;;;;5.57;100.00;99608.72;4908430;29;19919;-83
2022/12/24 00:47:55;;;;;;;;;;;;;;;5.57;100.00;99603.47;4908824;29;19919;-84
2022/12/24 00:50:21;;;;;;;;;;;;;;;5.59;100.00;99606.84;4909682;29;19981;-85
2022/12/24 00:52:46;;;;;;;;;;;;;;;5.60;100.00;99616.34;4911665;28;20291;-84
2022/12/24 00:55:11;;;;;;;;;;;;;;;5.60;100.00;99622.41;4907582;29;19971;-84
2022/12/24 00:57:36;;;;;;;;;;;;;;;5.62;100.00;99614.47;4915629;28;20371;-84
2022/12/24 01:00:02;;;;;;;;;;;;;;;5.63;100.00;99600.44;4909192;28;19934;-84
2022/12/24 01:02:28;;;;;;;;;;;;;;;5.65;100.00;99614.25;4923129;29;19923;-86
2022/12/24 01:05:11;;;;;;;;;;;;;;;5.67;100.00;99589.63;4905302;29;19920;-85
2022/12/24 01:07:38;;;;;;;;;;;;;;;5.71;100.00;99608.56;4904180;29;19947;-84
2022/12/24 01:10:04;;;;;;;;;;;;;;;5.70;100.00;99643.56;4920038;28;19965;-86
2022/12/24 01:12:29;;;;;;;;;;;;;;;5.68;100.00;99634.97;4907107;28;19966;-84
2022/12/24 01:14:55;;;;;;;;;;;;;;;5.70;100.00;99625.22;4904124;28;19974;-86
2022/12/24 01:17:20;;;;;;;;;;;;;;;5.71;100.00;99637.38;4904970;29;19926;-87
2022/12/24 01:19:45;;;;;;;;;;;;;;;5.70;100.00;99643.56;4906839;29;19919;-85
2022/12/24 01:22:11;;;;;;;;;;;;;;;5.68;100.00;99648.06;4904245;29;19920;-85
2022/12/24 01:24:36;;;;;;;;;;;;;;;5.69;100.00;99649.72;4905550;29;19981;-85
2022/12/24 01:27:01;;;;;;;;;;;;;;;5.68;100.00;99645.44;4904604;29;20299;-86
2022/12/24 01:29:27;;;;;;;;;;;;;;;5.70;100.00;99661.88;4905897;29;20062;-85
2022/12/24 01:31:52;;;;;;;;;;;;;;;5.71;100.00;99653.88;4905495;29;19926;-84
2022/12/24 01:34:17;;;;;;;;;;;;;;;5.73;100.00;99638.91;4904828;29;20001;-85
2022/12/24 01:36:43;;;;;;;;;;;;;;;5.77;100.00;99640.34;4907370;29;19919;-85
2022/12/24 01:39:08;;;;;;;;;;;;;;;5.80;100.00;99638.47;4904622;29;19931;-86
2022/12/24 01:44:39;;;;;;;;;;;;;;;5.77;100.00;99639.56;4911203;29;19919;-84
2022/12/24 01:47:16;;;;;;;;;;;;;;;5.72;100.00;99633.78;4907565;29;20286;-82
2022/12/24 01:49:45;;;;;;;;;;;;;;;5.73;100.00;99607.50;4908803;29;19926;-83
2022/12/24 01:52:21;;;;;;;;;;;;;;;5.77;100.00;99602.91;4903831;29;19919;-82
2022/12/24 01:54:49;;;;;;;;;;;;;;;5.80;100.00;99581.72;4912558;28;19962;-83
2022/12/24 01:57:17;;;;;;;;;;;;;;;5.84;100.00;99566.59;4921362;28;19954;-83
2022/12/24 01:59:44;;;;;;;;;;;;;;;5.87;100.00;99588.22;4898959;28;19978;-83
2022/12/24 02:02:10;;;;;;;;;;;;;;;5.89;100.00;99612.47;4904686;29;19923;-83
2022/12/24 02:04:44;;;;;;;;;;;;;;;5.91;100.00;99639.41;4907483;28;19924;-83
2022/12/24 02:07:09;;;;;;;;;;;;;;;5.93;100.00;99658.47;4907162;28;20327;-83
2022/12/24 02:09:35;;;;;;;;;;;;;;;5.95;100.00;99653.94;4906368;29;19919;-83
2022/12/24 02:12:01;;;;;;;;;;;;;;;5.97;100.00;99667.78;4909222;29;19966;-83
2022/12/24 02:14:27;;;;;;;;;;;;;;;5.99;100.00;99659.81;4908260;28;20291;-83
2022/12/24 02:16:52;;;;;;;;;;;;;;;6.00;100.00;99648.41;4904954;29;19919;-84
2022/12/24 02:19:20;;;;;;;;;;;;;;;6.00;100.00;99657.09;4905914;29;20306;-83
2022/12/24 02:22:21;;;;;;;;;;;;;;;6.00;100.00;99672.81;4901933;29;19919;-83
2022/12/24 02:25:01;;;;;;;;;;;;;;;5.95;100.00;99669.66;4953228;28;20398;-83
2022/12/24 02:27:32;;;;;;;;;;;;;;;5.91;100.00;99649.88;4972299;28;20429;-86
2022/12/24 02:30:04;;;;;;;;;;;;;;;5.91;100.00;99649.03;4972115;28;20564;-87
2022/12/24 02:32:29;;;;;;;;;;;;;;;5.92;100.00;99638.47;4972415;28;19918;-86
2022/12/24 02:35:08;;;;;;;;;;;;;;;5.93;100.00;99650.63;4972005;28;19977;-86
2022/12/24 02:37:35;;;;;;;;;;;;;;;5.91;100.00;99662.13;4972457;28;20390;-87
2022/12/24 02:40:15;;;;;;;;;;;;;;;5.89;100.00;99664.84;4955939;28;20004;-83
2022/12/24 02:42:43;;;;;;;;;;;;;;;5.81;100.00;99688.13;4978425;28;19924;-82
2022/12/24 02:45:13;;;;;;;;;;;;;;;5.81;100.00;99684.69;4971192;28;20425;-83
2022/12/24 02:47:40;;;;;;;;;;;;;;;5.81;100.00;99679.44;4967482;28;19950;-83
2022/12/24 02:50:07;;;;;;;;;;;;;;;5.77;100.00;99665.75;4955282;28;19918;-82
2022/12/24 02:52:33;;;;;;;;;;;;;;;5.78;100.00;99680.47;4971654;28;19918;-83
2022/12/24 02:55:04;;;;;;;;;;;;;;;5.77;100.00;99660.50;4971228;28;20340;-82
2022/12/24 02:57:30;;;;;;;;;;;;;;;5.77;100.00;99663.13;4955425;28;19918;-84
2022/12/24 03:00:04;;;;;;;;;;;;;;;5.75;100.00;99659.75;4908932;28;20241;-80
2022/12/24 03:02:37;;;;;;;;;;;;;;;5.77;100.00;99658.69;4908651;28;19919;-83
2022/12/24 03:05:17;;;;;;;;;;;;;;;5.70;100.00;99660.09;4908811;28;20447;-85
2022/12/24 03:07:49;;;;;;;;;;;;;;;5.63;100.00;99669.34;4908553;28;20011;-85
2022/12/24 03:10:17;;;;;;;;;;;;;;;5.53;100.00;99664.84;4910554;29;19919;-86
2022/12/24 03:12:45;;;;;;;;;;;;;;;5.48;100.00;99666.97;4908777;29;20363;-85
2022/12/24 03:15:13;;;;;;;;;;;;;;;5.50;100.00;99684.22;4906537;28;19931;-85
2022/12/24 03:17:39;;;;;;;;;;;;;;;5.54;100.00;99697.91;4908645;29;19930;-86
2022/12/24 03:20:06;;;;;;;;;;;;;;;5.43;100.00;99703.91;4909454;28;20299;-85
2022/12/24 03:22:33;;;;;;;;;;;;;;;5.49;100.00;99687.78;4910400;28;19926;-84
2022/12/24 03:24:58;;;;;;;;;;;;;;;5.50;100.00;99683.38;4907174;29;20069;-83
2022/12/24 03:27:28;;;;;;;;;;;;;;;5.53;100.00;99684.03;4908851;29;20017;-82
2022/12/24 03:29:54;;;;;;;;;;;;;;;5.59;100.00;99687.97;4908795;28;19919;-83
2022/12/24 03:32:23;;;;;;;;;;;;;;;5.62;100.00;99690.38;4906577;29;19926;-83
2022/12/24 03:34:49;;;;;;;;;;;;;;;5.64;100.00;99685.88;4909641;28;19923;-82
2022/12/24 03:37:14;;;;;;;;;;;;;;;5.61;100.00;99680.84;4907744;28;20002;-83
2022/12/24 03:39:39;;;;;;;;;;;;;;;5.61;100.00;99693.94;4905041;29;20279;-84
2022/12/24 03:42:04;;;;;;;;;;;;;;;5.60;100.00;99692.25;4909724;28;20368;-82
2022/12/24 03:44:30;;;;;;;;;;;;;;;5.60;100.00;99689.63;4911773;28;19926;-81
2022/12/24 03:46:55;;;;;;;;;;;;;;;5.61;100.00;99675.59;4911076;28;20382;-81
2022/12/24 03:49:20;;;;;;;;;;;;;;;5.61;100.00;99670.38;4919006;28;19923;-83
2022/12/24 03:51:46;;;;;;;;;;;;;;;5.64;100.00;99672.78;4907952;29;19915;-80
2022/12/24 03:54:11;;;;;;;;;;;;;;;5.67;100.00;99669.94;4910620;28;19919;-82
2022/12/24 03:56:36;;;;;;;;;;;;;;;5.69;100.00;99647.94;4907389;29;19965;-82
2022/12/24 03:59:02;;;;;;;;;;;;;;;5.72;100.00;99641.63;4904965;28;19985;-84
2022/12/24 04:01:27;;;;;;;;;;;;;;;5.74;100.00;99629.28;4908854;28;19919;-83
2022/12/24 04:03:52;;;;;;;;;;;;;;;5.74;100.00;99634.53;4908204;28;19930;-83
2022/12/24 04:06:18;;;;;;;;;;;;;;;5.75;100.00;99641.44;4904666;28;19969;-84
2022/12/24 04:08:43;;;;;;;;;;;;;;;5.73;100.00;99633.69;4910622;28;19942;-81
2022/12/24 04:11:10;;;;;;;;;;;;;;;5.74;100.00;99629.28;4907834;28;20367;-83
2022/12/24 04:13:35;;;;;;;;;;;;;;;5.70;100.00;99623.44;4909269;28;19919;-83
2022/12/24 04:16:02;;;;;;;;;;;;;;;5.65;100.00;99630.81;4908931;28;19981;-83
2022/12/24 04:18:28;;;;;;;;;;;;;;;5.62;100.00;99624.94;4905248;28;20334;-82
2022/12/24 04:20:53;;;;;;;;;;;;;;;5.64;100.00;99617.81;4910801;28;19977;-83
2022/12/24 04:23:18;;;;;;;;;;;;;;;5.65;100.00;99624.72;4910700;29;19926;-82
2022/12/24 04:25:44;;;;;;;;;;;;;;;5.64;100.00;99638.75;4905404;29;19915;-80
2022/12/24 04:28:09;;;;;;;;;;;;;;;5.63;100.00;99648.38;4910894;28;19919;-81
2022/12/24 04:30:36;;;;;;;;;;;;;;;5.62;100.00;99662.41;4905978;29;19915;-80
2022/12/24 04:33:02;;;;;;;;;;;;;;;5.64;100.00;99659.69;4908977;28;19930;-80
2022/12/24 04:35:27;;;;;;;;;;;;;;;5.62;100.00;99669.44;4907915;29;20283;-81
2022/12/24 04:37:52;;;;;;;;;;;;;;;5.59;100.00;99659.19;4910138;28;20387;-81
2022/12/24 04:40:17;;;;;;;;;;;;;;;5.61;100.00;99665.13;4909799;29;20415;-81
2022/12/24 04:42:43;;;;;;;;;;;;;;;5.61;100.00;99675.59;4912850;29;19919;-80
2022/12/24 04:45:08;;;;;;;;;;;;;;;5.58;100.00;99673.22;4914713;28;19919;-82
2022/12/24 04:47:34;;;;;;;;;;;;;;;5.55;100.00;99666.41;4914157;29;19934;-82
2022/12/24 04:50:00;;;;;;;;;;;;;;;5.58;100.00;99670.59;4923451;28;20360;-80
2022/12/24 04:52:25;;;;;;;;;;;;;;;5.59;100.00;99672.28;4910767;29;20295;-80
2022/12/24 04:54:51;;;;;;;;;;;;;;;5.58;100.00;99665.38;4911928;29;19930;-81
2022/12/24 04:57:16;;;;;;;;;;;;;;;5.56;100.00;99672.47;4911127;28;19922;-83
2022/12/24 04:59:41;;;;;;;;;;;;;;;5.54;100.00;99680.44;4907841;28;19969;-83
2022/12/24 05:02:07;;;;;;;;;;;;;;;5.43;100.00;99676.91;4912745;28;19919;-83
2022/12/24 05:04:32;;;;;;;;;;;;;;;5.36;100.00;99672.09;4908740;29;19926;-82
2022/12/24 05:06:57;;;;;;;;;;;;;;;5.35;100.00;99680.91;4914585;29;19927;-82
2022/12/24 05:09:22;;;;;;;;;;;;;;;5.32;100.00;99685.50;4911096;28;19941;-82
2022/12/24 05:11:48;;;;;;;;;;;;;;;5.34;100.00;99684.47;4910577;28;19930;-82
2022/12/24 05:14:13;;;;;;;;;;;;;;;5.38;100.00;99676.38;4923259;28;20371;-80
2022/12/24 05:16:38;;;;;;;;;;;;;;;5.41;100.00;99684.88;4911762;29;19926;-82
2022/12/24 05:19:04;;;;;;;;;;;;;;;5.44;100.00;99679.41;4911029;28;19958;-82
2022/12/24 05:21:29;;;;;;;;;;;;;;;5.46;100.00;99671.47;4918530;29;19919;-81
2022/12/24 05:26:43;;;;;;;;;;;;;;;5.52;100.00;99647.47;4910958;29;20398;-83
2022/12/24 05:29:11;;;;;;;;;;;;;;;5.56;100.00;99656.78;4917042;28;20383;-85
2022/12/24 05:31:38;;;;;;;;;;;;;;;5.54;100.00;99654.25;4907526;29;19926;-91
2022/12/24 05:34:03;;;;;;;;;;;;;;;5.57;100.00;99661.06;4914448;29;19919;-86
2022/12/24 05:36:28;;;;;;;;;;;;;;;5.57;100.00;99666.31;4911183;28;20429;-84
2022/12/24 05:38:54;;;;;;;;;;;;;;;5.59;100.00;99653.97;4928619;28;19917;-83
2022/12/24 05:41:19;;;;;;;;;;;;;;;5.58;100.00;99666.22;4912916;28;20260;-83
2022/12/24 05:43:45;;;;;;;;;;;;;;;5.59;100.00;99673.13;4910182;28;19919;-80
2022/12/24 05:46:11;;;;;;;;;;;;;;;5.61;100.00;99665.13;4913581;28;19919;-80
2022/12/24 05:48:37;;;;;;;;;;;;;;;5.62;100.00;99670.28;4912415;29;19945;-80
2022/12/24 05:51:03;;;;;;;;;;;;;;;5.64;100.00;99664.94;4908098;28;19923;-82
2022/12/24 05:53:29;;;;;;;;;;;;;;;5.64;100.00;99668.38;4913432;29;20379;-84
2022/12/24 05:55:54;;;;;;;;;;;;;;;5.62;100.00;99677.28;4911265;28;19919;-84
2022/12/24 05:58:19;;;;;;;;;;;;;;;5.64;100.00;99686.72;4910960;28;19919;-83
2022/12/24 06:00:44;;;;;;;;;;;;;;;5.63;100.00;99684.19;4909345;28;19923;-83
2022/12/24 06:03:10;;;;;;;;;;;;;;;5.64;100.00;99696.34;4910162;28;19919;-84
2022/12/24 06:05:36;;;;;;;;;;;;;;;5.61;100.00;99691.31;4928304;28;20030;-83
2022/12/24 06:08:01;;;;;;;;;;;;;;;5.62;100.00;99682.53;4912514;28;20006;-84
2022/12/24 06:10:26;;;;;;;;;;;;;;;5.59;100.00;99677.50;4909434;28;20017;-87
2022/12/24 06:12:52;;;;;;;;;;;;;;;5.62;100.00;99682.53;4906282;28;19915;-86
2022/12/24 06:15:17;;;;;;;;;;;;;;;5.62;100.00;99672.88;4912468;28;19954;-83
2022/12/24 06:17:42;;;;;;;;;;;;;;;5.62;100.00;99656.34;4908122;28;20287;-83
2022/12/24 06:20:08;;;;;;;;;;;;;;;5.61;100.00;99650.25;4910005;29;19931;-82
2022/12/24 06:22:33;;;;;;;;;;;;;;;5.62;100.00;99682.53;4910081;29;19927;-81
2022/12/24 06:24:59;;;;;;;;;;;;;;;5.57;100.00;99674.16;4908061;29;20421;-83
2022/12/24 06:27:24;;;;;;;;;;;;;;;5.55;100.00;99670.81;4910364;28;19946;-84
2022/12/24 06:29:49;;;;;;;;;;;;;;;5.56;100.00;99678.56;4910346;28;19919;-83
2022/12/24 06:32:15;;;;;;;;;;;;;;;5.52;100.00;99676.28;4906063;28;19946;-82
2022/12/24 06:34:40;;;;;;;;;;;;;;;5.48;100.00;99674.81;4912415;28;19946;-84
2022/12/24 06:37:05;;;;;;;;;;;;;;;5.44;100.00;99673.34;4909222;28;20367;-83
2022/12/24 06:39:30;;;;;;;;;;;;;;;5.41;100.00;99673.56;4909926;28;19965;-83
2022/12/24 06:41:56;;;;;;;;;;;;;;;5.40;100.00;99690.22;4960405;23;19919;-75
2022/12/24 06:44:21;;;;;;;;;;;;;;;5.38;100.00;99679.84;5014034;28;20299;-77
2022/12/24 06:46:47;;;;;;;;;;;;;;;5.43;100.00;99682.13;5011145;28;19967;-74
2022/12/24 06:49:12;;;;;;;;;;;;;;;5.46;100.00;99687.16;5013275;28;19924;-78
2022/12/24 06:51:38;;;;;;;;;;;;;;;5.46;100.00;99681.94;5010407;28;19952;-77
2022/12/24 06:54:03;;;;;;;;;;;;;;;5.46;100.00;99682.78;5010779;28;19925;-78
2022/12/24 06:56:29;;;;;;;;;;;;;;;5.50;100.00;99671.13;5009794;28;19971;-76
2022/12/24 06:58:54;;;;;;;;;;;;;;;5.54;100.00;99682.22;5008325;28;19917;-77
2022/12/24 07:01:20;;;;;;;;;;;;;;;5.52;100.00;99660.56;5009189;28;19917;-76
2022/12/24 07:03:46;;;;;;;;;;;;;;;5.56;100.00;99662.00;5010260;28;20290;-77
2022/12/24 07:06:15;;;;;;;;;;;;;;;5.56;100.00;99664.63;5006656;28;19957;-78
2022/12/24 07:08:40;;;;;;;;;;;;;;;5.57;100.00;99676.78;5006542;28;19921;-77
2022/12/24 07:11:05;;;;;;;;;;;;;;;5.59;100.00;99693.22;5009690;28;19913;-78
2022/12/24 07:13:33;;;;;;;;;;;;;;;5.62;100.00;99703.47;5014586;28;19960;-77
2022/12/24 07:15:59;;;;;;;;;;;;;;;5.65;100.00;99698.03;5012164;28;19928;-78
2022/12/24 07:18:25;;;;;;;;;;;;;;;5.62;100.00;99706.91;4989965;28;19913;-74
2022/12/24 07:20:50;;;;;;;;;;;;;;;5.45;100.00;99722.13;5008317;28;19963;-77
2022/12/24 07:23:15;;;;;;;;;;;;;;;5.47;100.00;99715.00;5009139;28;19924;-78
2022/12/24 07:25:41;;;;;;;;;;;;;;;5.53;100.00;99706.75;5004093;28;20111;-75
2022/12/24 07:28:07;;;;;;;;;;;;;;;5.57;100.00;99705.56;4996647;28;19921;-76
2022/12/24 07:30:32;;;;;;;;;;;;;;;5.59;100.00;99693.22;4980998;28;19943;-76
2022/12/24 07:32:57;;;;;;;;;;;;;;;5.63;100.00;99713.00;4997548;28;19929;-76
2022/12/24 07:35:23;;;;;;;;;;;;;;;5.63;100.00;99711.22;5005846;28;19925;-76
2022/12/24 07:37:48;;;;;;;;;;;;;;;5.57;100.00;99700.34;5006115;28;20000;-77
2022/12/24 07:40:14;;;;;;;;;;;;;;;5.56;100.00;99716.97;5009512;28;19917;-77
2022/12/24 07:42:39;;;;;;;;;;;;;;;5.55;100.00;99710.06;5010084;28;20051;-77
2022/12/24 07:45:05;;;;;;;;;;;;;;;5.60;100.00;99718.44;5010533;28;20370;-78
2022/12/24 07:47:30;;;;;;;;;;;;;;;5.58;100.00;99728.19;5005746;28;20341;-79
2022/12/24 07:49:56;;;;;;;;;;;;;;;5.54;100.00;99724.09;5007473;28;19930;-79
2022/12/24 07:52:21;;;;;;;;;;;;;;;5.59;100.00;99727.25;5009371;28;19917;-78
2022/12/24 07:54:47;;;;;;;;;;;;;;;5.63;100.00;99715.63;5006991;28;20007;-78
2022/12/24 07:57:12;;;;;;;;;;;;;;;5.65;100.00;99706.72;4998819;28;19917;-77
2022/12/24 07:59:38;;;;;;;;;;;;;;;5.66;100.00;99716.22;4998199;28;19923;-78
2022/12/24 08:02:03;;;;;;;;;;;;;;;5.70;100.00;99711.63;4997504;28;19925;-76
2022/12/24 08:04:35;;;;;;;;;;;;;;;5.68;100.00;99713.50;5001627;28;19917;-81
2022/12/24 08:07:02;;;;;;;;;;;;;;;5.70;100.00;99722.94;4995663;28;19953;-77
2022/12/24 08:09:30;;;;;;;;;;;;;;;5.71;100.00;99723.78;5001481;28;20030;-79
2022/12/24 08:11:55;;;;;;;;;;;;;;;5.76;100.00;99721.66;4984988;28;20254;-78
2022/12/24 08:14:21;;;;;;;;;;;;;;;5.78;100.00;99727.63;5007422;28;19929;-77
2022/12/24 08:16:46;;;;;;;;;;;;;;;5.77;100.00;99733.81;5007016;28;19921;-78
2022/12/24 08:19:11;;;;;;;;;;;;;;;5.80;100.00;99736.22;5015000;28;19921;-77
2022/12/24 08:21:37;;;;;;;;;;;;;;;5.82;100.00;99739.56;5011158;28;19918;-79
2022/12/24 08:24:02;;;;;;;;;;;;;;;5.84;100.00;99736.81;5010237;28;19922;-79
2022/12/24 08:26:28;;;;;;;;;;;;;;;5.82;100.00;99726.47;5000864;28;19952;-77
2022/12/24 08:28:53;;;;;;;;;;;;;;;5.85;100.00;99741.13;5015943;28;19924;-76
2022/12/24 08:31:18;;;;;;;;;;;;;;;5.86;100.00;99748.88;5011247;28;20399;-76
2022/12/24 08:33:44;;;;;;;;;;;;;;;5.90;100.00;99752.97;5011221;28;20011;-79
2022/12/24 08:36:09;;;;;;;;;;;;;;;5.91;100.00;99752.03;5011030;28;19924;-77
2022/12/24 08:38:35;;;;;;;;;;;;;;;5.94;100.00;99751.81;5013297;28;20432;-78
2022/12/24 08:41:00;;;;;;;;;;;;;;;5.96;100.00;99744.69;5012257;28;20012;-78
2022/12/24 08:43:26;;;;;;;;;;;;;;;6.00;100.00;99745.31;5013300;28;19921;-79
2022/12/24 08:45:51;;;;;;;;;;;;;;;6.01;100.00;99750.41;5011336;28;20011;-77
2022/12/24 08:48:17;;;;;;;;;;;;;;;6.03;100.00;99756.41;5013445;28;20301;-79
2022/12/24 08:50:43;;;;;;;;;;;;;;;6.05;100.00;99754.53;5011547;28;20411;-78
2022/12/24 08:53:08;;;;;;;;;;;;;;;6.08;100.00;99751.66;5003266;28;19928;-78
2022/12/24 08:55:34;;;;;;;;;;;;;;;6.04;100.00;99759.84;4999540;28;19953;-79
2022/12/24 08:57:59;;;;;;;;;;;;;;;6.02;100.00;99754.72;5009301;28;20373;-81
2022/12/24 09:00:25;;;;;;;;;;;;;;;5.97;100.00;99762.06;5012098;28;19925;-82
2022/12/24 09:02:50;;;;;;;;;;;;;;;6.00;100.00;99766.28;5006244;28;19917;-82
2022/12/24 09:05:16;;;;;;;;;;;;;;;6.02;100.00;99762.56;5006303;28;19936;-82
2022/12/24 09:07:42;;;;;;;;;;;;;;;6.07;100.00;99781.41;5008030;28;20362;-79
2022/12/24 09:10:08;;;;;;;;;;;;;;;6.10;100.00;99775.97;5007578;28;20385;-79
2022/12/24 09:12:33;;;;;;;;;;;;;;;6.11;100.00;99768.97;5006137;28;19925;-80
2022/12/24 09:14:59;;;;;;;;;;;;;;;6.15;100.00;99771.25;5005842;28;19921;-78
2022/12/24 09:17:24;;;;;;;;;;;;;;;6.18;100.00;99763.16;5001506;28;19918;-77
2022/12/24 09:19:50;;;;;;;;;;;;;;;6.22;100.00;99773.44;5004594;28;19924;-79
2022/12/24 09:22:16;;;;;;;;;;;;;;;6.21;100.00;99784.84;4995575;28;19945;-81
2022/12/24 09:24:41;;;;;;;;;;;;;;;6.24;100.00;99795.13;4983019;28;20290;-78
2022/12/24 09:27:07;;;;;;;;;;;;;;;6.24;100.00;99795.13;5000036;28;19929;-82
2022/12/24 09:29:32;;;;;;;;;;;;;;;6.24;100.00;99790.72;4999728;28;19958;-81
2022/12/24 09:31:58;;;;;;;;;;;;;;;6.25;100.00;99786.28;5008338;28;19921;-82
2022/12/24 09:34:24;;;;;;;;;;;;;;;6.30;100.00;99794.69;5005401;28;19917;-83
2022/12/24 09:36:50;;;;;;;;;;;;;;;6.33;100.00;99786.59;4989352;28;19917;-80
2022/12/24 09:39:16;;;;;;;;;;;;;;;6.29;100.00;99793.00;4999929;28;20036;-80
2022/12/24 09:42:00;;;;;;;;;;;;;;;6.24;100.00;99814.31;5004957;28;20397;-79
2022/12/24 09:44:44;;;;;;;;;;;;;;;6.24;100.00;99816.09;5005395;28;19926;-79
2022/12/24 09:47:14;;;;;;;;;;;;;;;6.27;100.00;99805.38;4999611;28;20371;-79
2022/12/24 09:49:42;;;;;;;;;;;;;;;6.33;100.00;99794.47;4999134;28;19917;-79
2022/12/24 09:52:11;;;;;;;;;;;;;;;6.37;100.00;99795.91;4999461;28;19918;-79
2022/12/24 09:54:40;;;;;;;;;;;;;;;6.39;100.00;99794.84;4996553;28;20289;-78
2022/12/24 09:57:13;;;;;;;;;;;;;;;6.40;100.00;99787.84;4999388;28;19968;-78
2022/12/24 09:59:41;;;;;;;;;;;;;;;6.43;100.00;99796.31;4997472;28;20031;-79
2022/12/24 10:02:16;;;;;;;;;;;;;;;6.47;100.00;99781.22;4997881;28;19965;-77
2022/12/24 10:04:42;;;;;;;;;;;;;;;6.51;100.00;99777.41;4998117;28;19924;-77
2022/12/24 10:07:08;;;;;;;;;;;;;;;6.53;100.00;99786.00;4998728;28;19918;-79
2022/12/24 10:09:36;;;;;;;;;;;;;;;6.54;100.00;99804.22;4999091;28;19917;-75
2022/12/24 10:12:14;;;;;;;;;;;;;;;6.51;100.00;99814.94;5002853;28;19978;-79
2022/12/24 10:14:46;;;;;;;;;;;;;;;6.49;100.00;99810.75;4998548;28;19952;-75
2022/12/24 10:17:20;;;;;;;;;;;;;;;6.52;100.00;99815.78;4996911;28;19913;-78
2022/12/24 10:19:45;;;;;;;;;;;;;;;6.52;100.00;99821.03;5000817;28;19921;-76
2022/12/24 10:22:17;;;;;;;;;;;;;;;6.54;100.00;99819.94;4999038;28;19941;-77
2022/12/24 10:24:48;;;;;;;;;;;;;;;6.59;100.00;99811.78;4998442;28;20015;-77
2022/12/24 10:27:16;;;;;;;;;;;;;;;6.63;100.00;99805.34;4998082;28;19968;-78
2022/12/24 10:29:45;;;;;;;;;;;;;;;6.65;100.00;99800.00;4998081;28;19917;-77
2022/12/24 10:32:16;;;;;;;;;;;;;;;6.67;100.00;99791.06;4997125;28;20397;-77
2022/12/24 10:34:43;;;;;;;;;;;;;;;6.66;100.00;99791.16;4996897;28;19917;-77
2022/12/24 10:37:19;;;;;;;;;;;;;;;6.61;100.00;99804.63;4996898;28;19917;-77
2022/12/24 10:39:45;;;;;;;;;;;;;;;6.61;100.00;99788.88;5002661;28;19949;-78
2022/12/24 10:42:12;;;;;;;;;;;;;;;6.65;100.00;99784.28;5000440;28;20007;-77
2022/12/24 10:44:37;;;;;;;;;;;;;;;6.68;100.00;99778.78;5000220;28;19921;-77
2022/12/24 10:47:05;;;;;;;;;;;;;;;6.68;100.00;99787.50;4999672;28;19941;-78
2022/12/24 10:49:35;;;;;;;;;;;;;;;6.71;100.00;99796.94;5001065;28;19925;-78
2022/12/24 10:52:10;;;;;;;;;;;;;;;6.74;100.00;99778.34;4983337;28;19918;-77
2022/12/24 10:54:38;;;;;;;;;;;;;;;6.77;100.00;99789.47;5000317;28;19925;-77
2022/12/24 10:57:04;;;;;;;;;;;;;;;6.82;100.00;99789.94;4995502;28;19924;-78
2022/12/24 10:59:48;;;;;;;;;;;;;;;6.86;100.00;99794.00;4997400;28;20393;-78
2022/12/24 11:02:33;;;;;;;;;;;;;;;6.87;100.00;99800.09;5000194;28;20008;-79
2022/12/24 11:04:59;;;;;;;;;;;;;;;6.88;100.00;99807.84;4994317;28;20016;-78
2022/12/24 11:07:25;;;;;;;;;;;;;;;6.88;100.00;99802.63;4997177;28;19918;-76
2022/12/24 11:09:59;;;;;;;;;;;;;;;6.90;100.00;99800.69;5002331;28;20004;-78
2022/12/24 11:12:26;;;;;;;;;;;;;;;6.91;100.00;99802.38;5007154;28;20016;-78
2022/12/24 11:14:59;;;;;;;;;;;;;;;6.89;100.00;99788.53;5009699;28;19970;-77
2022/12/24 11:17:24;;;;;;;;;;;;;;;6.89;100.00;99782.47;5010504;28;19947;-78
2022/12/24 11:19:50;;;;;;;;;;;;;;;6.91;100.00;99791.88;5010242;28;19918;-75
2022/12/24 11:22:18;;;;;;;;;;;;;;;6.89;100.00;99782.47;5010711;28;20039;-77
2022/12/24 11:24:44;;;;;;;;;;;;;;;6.91;100.00;99789.25;5010120;28;20036;-78
2022/12/24 11:27:30;;;;;;;;;;;;;;;6.87;100.00;99795.69;5010485;28;20033;-77
2022/12/24 11:30:14;;;;;;;;;;;;;;;6.83;100.00;99798.66;5009767;28;20484;-77
2022/12/24 11:32:46;;;;;;;;;;;;;;;6.85;100.00;99789.72;5010155;28;19971;-78
2022/12/24 11:35:14;;;;;;;;;;;;;;;6.82;100.00;99787.31;5002866;28;19924;-78
2022/12/24 11:37:40;;;;;;;;;;;;;;;6.82;100.00;99779.47;5005729;28;19961;-78
2022/12/24 11:40:17;;;;;;;;;;;;;;;6.73;100.00;99788.00;5009861;28;19991;-75
2022/12/24 11:42:42;;;;;;;;;;;;;;;6.73;100.00;99771.41;5009524;28;20314;-77
2022/12/24 11:45:20;;;;;;;;;;;;;;;6.75;100.00;99775.59;5010286;28;19972;-78
2022/12/24 11:47:46;;;;;;;;;;;;;;;6.76;100.00;99764.16;5008802;28;19928;-79
2022/12/24 11:50:23;;;;;;;;;;;;;;;6.80;100.00;99763.00;5009772;28;19925;-78
2022/12/24 11:52:54;;;;;;;;;;;;;;;6.82;100.00;99755.84;5008824;28;20443;-77
2022/12/24 11:55:38;;;;;;;;;;;;;;;6.87;100.00;99761.59;4990265;28;20416;-77
2022/12/24 11:58:06;;;;;;;;;;;;;;;6.91;100.00;99752.53;5009767;28;19921;-83
2022/12/24 12:00:32;;;;;;;;;;;;;;;6.94;100.00;99760.19;5012433;28;19921;-80
2022/12/24 12:02:59;;;;;;;;;;;;;;;6.99;100.00;99762.47;5009207;28;20360;-80
2022/12/24 12:05:27;;;;;;;;;;;;;;;7.02;100.00;99756.13;5010085;28;20365;-79
2022/12/24 12:07:56;;;;;;;;;;;;;;;7.03;100.00;99768.28;5011275;28;20385;-79
2022/12/24 12:10:31;;;;;;;;;;;;;;;7.03;100.00;99770.91;5010338;28;19920;-80
2022/12/24 12:12:59;;;;;;;;;;;;;;;7.03;100.00;99782.25;4656627;28;10000545;-80
2022/12/24 12:15:28;;;;;;;;;;;;;;;7.02;100.00;99787.59;4997749;28;19928;-79
2022/12/24 12:18:14;;;;;;;;;;;;;;;7.02;100.00;99787.59;4997239;28;20396;-79
2022/12/24 12:20:55;;;;;;;;;;;;;;;7.03;100.00;99786.66;4999990;28;19922;-79
2022/12/24 12:23:24;;;;;;;;;;;;;;;7.05;100.00;99783.00;5000961;28;20423;-81
2022/12/24 12:25:56;;;;;;;;;;;;;;;7.05;100.00;99771.66;4998101;28;20381;-80
2022/12/24 12:28:24;;;;;;;;;;;;;;;7.07;100.00;99769.75;4657694;28;9999753;-79
2022/12/24 12:31:16;;;;;;;;;;;;;;;7.07;100.00;99761.88;4991479;28;19972;-80
2022/12/24 12:33:44;;;;;;;;;;;;;;;7.09;100.00;99757.34;5005589;28;20435;-80
2022/12/24 12:36:12;;;;;;;;;;;;;;;7.09;100.00;99758.19;5008445;28;20012;-80
2022/12/24 12:38:37;;;;;;;;;;;;;;;7.11;100.00;99755.44;4992684;28;20442;-82
2022/12/24 12:41:12;;;;;;;;;;;;;;;7.13;100.00;99762.22;4984972;28;20016;-76
2022/12/24 12:43:56;;;;;;;;;;;;;;;7.15;100.00;99757.72;5006911;28;19925;-79
2022/12/24 12:46:24;;;;;;;;;;;;;;;7.16;100.00;99761.19;5006787;28;20326;-81
2022/12/24 12:48:56;;;;;;;;;;;;;;;7.14;100.00;99760.44;4986521;28;19979;-80
2022/12/24 12:51:27;;;;;;;;;;;;;;;7.14;100.00;99773.56;5012361;28;20358;-81
2022/12/24 12:54:04;;;;;;;;;;;;;;;7.14;100.00;99781.44;4987274;28;19956;-83